Accueil
METAR-TAF:

METAR-TAF

Aéroports :

Aéroport de Ghriss

Ghriss, Algérie

latitude: 35-12N, longitude: 000-08E, altitude: 514 m

Observation

Le bulletin a été fait il y a 10 minutes, à 12:00 UTC
Vent 6 kt de nord, variant entre ouest/nord-ouest et nord-est
Température 32°C
Humidité 26%
Pression 1015 hPa
Visibilité 10 km ou plus
pas de nuages en-dessous de 1500 mètres et pas de cumulonimbus.

METAR: DAOV 021200Z 35006KT 300V050 CAVOK 32/10 Q1015

Heure: 13:10 (12:10 UTC)

Prévision

Le bulletin a été fait il y a 1 heure et 10 minutes, à 11:00 UTC
Prévision valable du 02 à 12 UTC au 02 à 21 UTC
Vent 10 kt de nord
Visibilité 10 km ou plus
pas de nuages en-dessous de 1500 mètres et pas de cumulonimbus.
Evoluant progressivement
du 02 à 17 UTC au 02 à 20 UTC
Vent 2 kt de direction variable

TAF: DAOV 021100Z 0212/0221 01010KT CAVOK BECMG 0217/0220 VRB02KT

Observations et prévisions météorologiques de plus de 4000 aéroports (messages METAR et TAF).

Les stations disponibles sont représentées par des disques jaunes et rouges sur la carte.

Passer la souris dessus pour voir le nom de la station.

Cliquer dessus pour voir les observations et prévisions météorologiques.

Pour changer de carte: cliquez sur les boutons verts avec une croix noire pour zoomer, sur le bouton vert avec un tiret pour effectuer un zoom arrière, ou sur les flèches vertes pour les cartes adjacentes.


METAR-TAF: